createdAt,value
2023-02-05T00:00:49.493Z,20.15
2023-02-05T00:03:17.180Z,20.12
2023-02-05T00:05:44.955Z,19.91
2023-02-05T00:08:12.766Z,19.68
2023-02-05T00:10:41.725Z,20.03
2023-02-05T00:13:09.556Z,20.05
2023-02-05T00:15:41.445Z,19.80
2023-02-05T00:18:09.282Z,19.49
2023-02-05T00:20:38.108Z,19.64
2023-02-05T00:23:05.870Z,20.15
2023-02-05T00:25:34.352Z,19.89
2023-02-05T00:28:02.245Z,19.72
2023-02-05T00:30:30.580Z,20.12
2023-02-05T00:32:58.370Z,20.11
2023-02-05T00:35:26.295Z,20.11
2023-02-05T00:37:54.058Z,19.91
2023-02-05T00:40:21.852Z,19.84
2023-02-05T00:42:49.675Z,19.93
2023-02-05T00:45:17.719Z,19.99
2023-02-05T00:47:45.445Z,19.96
2023-02-05T00:50:13.369Z,19.55
2023-02-05T00:52:41.795Z,19.79
2023-02-05T00:55:11.509Z,19.41
2023-02-05T00:57:39.652Z,19.94
2023-02-05T01:00:08.986Z,19.94
2023-02-05T01:02:36.799Z,19.92
2023-02-05T01:05:05.396Z,19.66
2023-02-05T01:07:33.151Z,19.47
2023-02-05T01:10:01.119Z,19.43
2023-02-05T01:12:29.079Z,19.08
2023-02-05T01:14:57.817Z,19.67
2023-02-05T01:17:25.564Z,19.49
2023-02-05T01:19:53.641Z,19.74
2023-02-05T01:22:22.043Z,19.84
2023-02-05T01:24:51.454Z,19.64
2023-02-05T01:27:19.267Z,19.40
2023-02-05T01:29:47.174Z,19.79
2023-02-05T01:32:14.998Z,19.33
2023-02-05T01:34:43.334Z,19.81
2023-02-05T01:37:11.208Z,19.81
2023-02-05T01:39:39.175Z,19.62
2023-02-05T01:42:23.505Z,19.78
2023-02-05T01:45:22.436Z,19.75
2023-02-05T01:47:57.172Z,19.58
2023-02-05T01:50:34.401Z,19.70
2023-02-05T01:53:08.536Z,19.56
2023-02-05T01:55:43.102Z,19.58
2023-02-05T01:58:12.020Z,19.68
2023-02-05T02:00:40.225Z,19.65
2023-02-05T02:03:08.044Z,19.13
2023-02-05T02:05:35.986Z,18.80
2023-02-05T02:08:04.191Z,19.53
2023-02-05T02:10:33.906Z,19.58
2023-02-05T02:13:02.688Z,19.50
2023-02-05T02:15:30.875Z,19.38
2023-02-05T02:18:22.613Z,19.58
2023-02-05T02:21:10.602Z,19.55
2023-02-05T02:24:01.445Z,19.54
2023-02-05T02:26:54.283Z,19.53
2023-02-05T02:29:39.967Z,19.40
2023-02-05T02:32:37.793Z,19.50
2023-02-05T02:35:18.122Z,19.20
2023-02-05T02:37:52.780Z,19.25
2023-02-05T02:40:43.301Z,19.46
2023-02-05T02:43:29.765Z,19.43
2023-02-05T02:46:06.863Z,19.41
2023-02-05T02:48:38.458Z,18.63
2023-02-05T02:51:10.103Z,19.18
2023-02-05T02:53:43.741Z,18.69
2023-02-05T02:56:14.118Z,18.88
2023-02-05T02:58:49.721Z,18.91
2023-02-05T03:01:23.849Z,19.35
2023-02-05T03:04:00.608Z,19.34
2023-02-05T03:06:31.875Z,18.85
2023-02-05T03:09:39.528Z,19.26
2023-02-05T03:12:08.070Z,18.87
2023-02-05T03:14:36.371Z,18.96
2023-02-05T03:17:04.793Z,19.23
2023-02-05T03:19:33.402Z,19.16
2023-02-05T03:22:06.178Z,19.24
2023-02-05T03:24:34.365Z,19.09
2023-02-05T03:27:02.353Z,19.02
2023-02-05T03:29:39.207Z,19.20
2023-02-05T03:32:47.968Z,18.55
2023-02-05T03:35:34.170Z,19.16
2023-02-05T03:38:07.985Z,19.13
2023-02-05T03:40:38.259Z,19.10
2023-02-05T03:43:30.450Z,19.09
2023-02-05T03:46:28.844Z,19.09
2023-02-05T03:49:53.367Z,19.02
2023-02-05T03:52:31.152Z,19.04
2023-02-05T03:55:05.406Z,19.02
2023-02-05T03:57:49.289Z,18.81
2023-02-05T04:00:19.289Z,18.27
2023-02-05T04:02:48.712Z,18.56
2023-02-05T04:05:23.054Z,18.45
2023-02-05T04:07:53.208Z,18.77
2023-02-05T04:10:24.943Z,18.91
2023-02-05T04:12:53.361Z,18.72
2023-02-05T04:15:22.976Z,18.94
2023-02-05T04:17:54.689Z,18.53
2023-02-05T04:20:22.518Z,18.91
2023-02-05T04:22:50.427Z,18.90
2023-02-05T04:25:19.880Z,18.63
2023-02-05T04:27:49.248Z,18.53
2023-02-05T04:30:17.594Z,18.89
2023-02-05T04:32:47.306Z,18.74
2023-02-05T04:35:17.676Z,18.58
2023-02-05T04:37:47.050Z,18.77
2023-02-05T04:40:15.842Z,18.76
2023-02-05T04:42:44.272Z,18.83
2023-02-05T04:45:12.340Z,18.73
2023-02-05T04:47:40.704Z,18.86
2023-02-05T04:50:09.461Z,18.85
2023-02-05T04:52:37.293Z,18.48
2023-02-05T04:55:05.568Z,18.83
2023-02-05T04:57:33.455Z,18.33
2023-02-05T05:00:01.400Z,18.51
2023-02-05T05:02:29.589Z,18.43
2023-02-05T05:04:57.515Z,18.60
2023-02-05T05:07:25.296Z,18.06
2023-02-05T05:09:53.191Z,17.89
2023-02-05T05:12:24.113Z,18.71
2023-02-05T05:14:51.930Z,17.86
2023-02-05T05:17:19.845Z,18.39
2023-02-05T05:19:47.781Z,18.66
2023-02-05T05:22:15.729Z,18.33
2023-02-05T05:24:43.429Z,18.52
2023-02-05T05:27:11.442Z,18.32
2023-02-05T05:29:39.396Z,18.56
2023-02-05T05:32:07.143Z,18.54
2023-02-05T05:34:35.037Z,18.66
2023-02-05T05:37:02.810Z,18.66
2023-02-05T05:39:49.025Z,18.28
2023-02-05T05:42:35.264Z,18.56
2023-02-05T05:45:03.320Z,18.60
2023-02-05T05:47:31.369Z,18.36
2023-02-05T05:49:59.521Z,18.63
2023-02-05T05:52:27.677Z,18.41
2023-02-05T05:54:55.494Z,18.21
2023-02-05T05:57:23.306Z,18.58
2023-02-05T05:59:51.874Z,17.99
2023-02-05T06:02:19.810Z,18.17
2023-02-05T06:04:47.616Z,18.11
2023-02-05T06:07:15.728Z,18.23
2023-02-05T06:09:43.349Z,18.62
2023-02-05T06:12:11.819Z,18.61
2023-02-05T06:14:42.141Z,18.37
2023-02-05T06:17:09.916Z,18.63
2023-02-05T06:19:37.627Z,18.27
2023-02-05T06:22:05.451Z,18.55
2023-02-05T06:24:33.389Z,18.55
2023-02-05T06:27:01.956Z,18.48
2023-02-05T06:29:29.989Z,18.59
2023-02-05T06:31:57.819Z,18.47
2023-02-05T06:34:25.768Z,18.70
2023-02-05T06:36:53.665Z,18.19
2023-02-05T06:39:24.226Z,18.76
2023-02-05T06:41:52.858Z,18.64
2023-02-05T06:44:20.825Z,18.65
2023-02-05T06:46:48.525Z,18.68
2023-02-05T06:49:16.255Z,18.73
2023-02-05T06:51:43.981Z,18.77
2023-02-05T06:54:13.860Z,18.76
2023-02-05T06:56:41.954Z,18.42
2023-02-05T06:59:09.831Z,18.61
2023-02-05T07:01:37.585Z,17.95
2023-02-05T07:04:05.621Z,18.69
2023-02-05T07:06:33.332Z,18.55
2023-02-05T07:09:01.252Z,17.87
2023-02-05T07:11:29.245Z,17.74
2023-02-05T07:13:57.114Z,18.37
2023-02-05T07:16:25.049Z,18.22
2023-02-05T07:18:53.323Z,18.24
2023-02-05T07:21:21.211Z,18.45
2023-02-05T07:23:49.005Z,18.32
2023-02-05T07:26:18.748Z,18.36
2023-02-05T07:28:46.523Z,18.04
2023-02-05T07:31:17.441Z,18.37
2023-02-05T07:33:48.428Z,18.37
2023-02-05T07:36:18.324Z,18.41
2023-02-05T07:38:48.787Z,18.47
2023-02-05T07:41:16.957Z,18.43
2023-02-05T07:43:44.949Z,18.42
2023-02-05T07:46:15.173Z,18.54
2023-02-05T07:48:43.155Z,18.40
2023-02-05T07:51:17.419Z,18.35
2023-02-05T07:53:45.678Z,18.51
2023-02-05T07:56:17.429Z,18.41
2023-02-05T07:58:46.817Z,18.15
2023-02-05T08:01:14.888Z,18.36
2023-02-05T08:03:44.204Z,18.49
2023-02-05T08:06:15.245Z,18.51
2023-02-05T08:08:43.735Z,18.43
2023-02-05T08:11:16.361Z,18.36
2023-02-05T08:13:45.179Z,18.53
2023-02-05T08:16:15.951Z,18.54
2023-02-05T08:18:48.542Z,18.11
2023-02-05T08:21:17.175Z,17.80
2023-02-05T08:23:46.679Z,18.59
2023-02-05T08:26:16.002Z,18.43
2023-02-05T08:28:43.825Z,18.00
2023-02-05T08:31:17.442Z,18.55
2023-02-05T08:33:47.832Z,18.56
2023-02-05T08:36:15.615Z,18.54
2023-02-05T08:38:44.693Z,18.22
2023-02-05T08:41:12.891Z,18.24
2023-02-05T08:43:51.108Z,18.72
2023-02-05T08:46:22.943Z,18.71
2023-02-05T08:48:51.259Z,18.36
2023-02-05T08:51:19.864Z,18.86
2023-02-05T08:53:47.560Z,18.16
2023-02-05T08:56:16.106Z,18.38
2023-02-05T08:58:43.924Z,18.45
2023-02-05T09:01:14.748Z,18.69
2023-02-05T09:03:43.149Z,18.38
2023-02-05T09:06:14.373Z,18.98
2023-02-05T09:08:42.299Z,19.00
2023-02-05T09:11:13.713Z,19.01
2023-02-05T09:13:41.638Z,19.03
2023-02-05T09:16:12.774Z,19.05
2023-02-05T09:18:40.693Z,19.11
2023-02-05T09:21:10.712Z,19.13
2023-02-05T09:23:38.695Z,19.05
2023-02-05T09:26:07.330Z,19.02
2023-02-05T09:28:36.250Z,18.93
2023-02-05T09:31:09.458Z,19.18
2023-02-05T09:33:37.467Z,18.91
2023-02-05T09:36:07.736Z,18.92
2023-02-05T09:38:36.074Z,19.12
2023-02-05T09:41:14.935Z,18.98
2023-02-05T09:43:49.064Z,19.36
2023-02-05T09:46:34.909Z,19.50
2023-02-05T09:49:20.884Z,19.62
2023-02-05T09:51:53.176Z,19.55
2023-02-05T09:54:25.736Z,18.95
2023-02-05T09:56:57.759Z,19.26
2023-02-05T09:59:27.831Z,19.59
2023-02-05T10:02:15.720Z,19.29
2023-02-05T10:04:43.926Z,19.62
2023-02-05T10:07:39.408Z,19.65
2023-02-05T10:10:27.348Z,19.72
2023-02-05T10:13:13.746Z,19.78
2023-02-05T10:16:00.144Z,19.86
2023-02-05T10:18:53.840Z,19.84
2023-02-05T10:21:56.638Z,20.12
2023-02-05T10:24:40.933Z,20.16
2023-02-05T10:27:08.576Z,20.25
2023-02-05T10:29:53.916Z,20.31
2023-02-05T10:32:24.816Z,20.28
2023-02-05T10:34:59.612Z,20.44
2023-02-05T10:37:31.997Z,20.26
2023-02-05T10:40:00.384Z,20.06
2023-02-05T10:42:39.536Z,19.89
2023-02-05T10:45:19.112Z,20.25
2023-02-05T10:48:17.909Z,20.24
2023-02-05T10:51:08.754Z,20.20
2023-02-05T10:53:36.851Z,19.96
2023-02-05T10:56:05.277Z,20.12
2023-02-05T10:58:39.992Z,19.51
2023-02-05T11:01:12.852Z,20.11
2023-02-05T11:03:53.731Z,20.12
2023-02-05T11:06:23.758Z,19.71
2023-02-05T11:08:52.047Z,19.84
2023-02-05T11:11:33.907Z,20.07
2023-02-05T11:14:07.525Z,19.68
2023-02-05T11:16:42.406Z,20.03
2023-02-05T11:19:21.735Z,20.03
2023-02-05T11:21:57.302Z,20.06
2023-02-05T11:24:32.715Z,20.08
2023-02-05T11:27:16.086Z,20.09
2023-02-05T11:29:44.166Z,19.80
2023-02-05T11:32:33.662Z,19.71
2023-02-05T11:35:24.173Z,20.19
2023-02-05T11:38:21.172Z,19.99
2023-02-05T11:40:53.111Z,18.86
2023-02-05T11:43:38.940Z,20.18
2023-02-05T11:46:10.096Z,20.18
2023-02-05T11:48:43.613Z,20.21
2023-02-05T11:51:16.183Z,20.25
2023-02-05T11:53:57.718Z,19.82
2023-02-05T11:56:26.710Z,19.75
2023-02-05T11:59:01.737Z,20.35
2023-02-05T12:01:34.736Z,19.92
2023-02-05T12:04:02.620Z,20.35
2023-02-05T12:07:05.820Z,19.91
2023-02-05T12:09:33.712Z,20.20
2023-02-05T12:12:03.660Z,20.34
2023-02-05T12:14:47.060Z,20.31
2023-02-05T12:17:23.867Z,20.44
2023-02-05T12:20:05.851Z,20.18
2023-02-05T12:22:58.364Z,20.45
2023-02-05T12:25:48.151Z,20.08
2023-02-05T12:28:44.109Z,20.35
2023-02-05T12:31:22.564Z,20.32
2023-02-05T12:33:53.811Z,20.31
2023-02-05T12:36:33.864Z,20.28
2023-02-05T12:39:13.157Z,20.27
2023-02-05T12:42:06.296Z,20.22
2023-02-05T12:45:20.169Z,20.05
2023-02-05T12:48:15.434Z,20.22
2023-02-05T12:51:17.663Z,20.01
2023-02-05T12:54:34.264Z,20.27
2023-02-05T12:57:13.466Z,20.26
2023-02-05T13:00:07.975Z,20.23
2023-02-05T13:02:50.029Z,20.20
2023-02-05T13:05:29.521Z,20.02
2023-02-05T13:08:19.014Z,20.23
2023-02-05T13:11:07.934Z,20.25
2023-02-05T13:14:03.508Z,20.21
2023-02-05T13:16:52.268Z,20.19
2023-02-05T13:19:32.361Z,20.23
2023-02-05T13:22:24.172Z,20.24
2023-02-05T13:25:39.529Z,20.20
2023-02-05T13:28:41.460Z,20.04
2023-02-05T13:31:24.678Z,20.14
2023-02-05T13:33:55.766Z,20.11
2023-02-05T13:36:30.588Z,20.13
2023-02-05T13:39:17.075Z,20.17
2023-02-05T13:42:10.176Z,20.16
2023-02-05T13:44:50.873Z,20.19
2023-02-05T13:47:30.742Z,20.21
2023-02-05T13:50:13.427Z,20.15
2023-02-05T13:52:53.548Z,20.28
2023-02-05T13:55:32.273Z,20.08
2023-02-05T13:58:32.602Z,20.30
2023-02-05T14:01:24.683Z,20.31
2023-02-05T14:04:04.468Z,20.20
2023-02-05T14:06:39.984Z,20.39
2023-02-05T14:09:23.844Z,20.28
2023-02-05T14:12:00.796Z,20.42
2023-02-05T14:14:30.487Z,20.44
2023-02-05T14:17:22.786Z,20.42
2023-02-05T14:19:57.306Z,20.43
2023-02-05T14:22:48.223Z,20.46
2023-02-05T14:25:46.116Z,20.46
2023-02-05T14:28:17.149Z,20.43
2023-02-05T14:30:59.297Z,20.38
2023-02-05T14:33:43.376Z,20.44
2023-02-05T14:36:18.079Z,20.39
2023-02-05T14:38:57.666Z,20.33
2023-02-05T14:41:39.292Z,20.07
2023-02-05T14:44:13.280Z,20.33
2023-02-05T14:47:03.463Z,20.31
2023-02-05T14:49:44.793Z,20.29
2023-02-05T14:52:37.743Z,20.23
2023-02-05T14:55:19.988Z,20.19
2023-02-05T14:57:54.004Z,20.20
2023-02-05T15:00:24.372Z,20.18
2023-02-05T15:03:22.100Z,20.07
2023-02-05T15:06:05.910Z,20.14
2023-02-05T15:08:43.022Z,20.13
2023-02-05T15:11:13.897Z,20.11
2023-02-05T15:13:42.740Z,20.10
2023-02-05T15:16:16.659Z,20.14
2023-02-05T15:18:52.354Z,20.13
2023-02-05T15:21:41.220Z,20.08
2023-02-05T15:24:21.708Z,20.23
2023-02-05T15:26:58.733Z,19.93
2023-02-05T15:29:29.585Z,20.20
2023-02-05T15:32:13.869Z,19.91
2023-02-05T15:34:49.131Z,20.18
2023-02-05T15:37:31.668Z,20.19
2023-02-05T15:40:08.499Z,20.17
2023-02-05T15:42:39.986Z,20.00
2023-02-05T15:45:29.573Z,19.75
2023-02-05T15:48:10.939Z,20.02
2023-02-05T15:50:51.732Z,20.26
2023-02-05T15:53:41.011Z,20.27
2023-02-05T15:56:20.309Z,20.28
2023-02-05T15:58:52.780Z,20.28
2023-02-05T16:02:00.039Z,20.25
2023-02-05T16:04:29.199Z,20.24
2023-02-05T16:06:57.872Z,20.22
2023-02-05T16:09:29.156Z,20.19
2023-02-05T16:11:57.732Z,19.92
2023-02-05T16:14:28.652Z,20.21
2023-02-05T16:17:20.713Z,20.19
2023-02-05T16:19:59.535Z,19.92
2023-02-05T16:22:48.707Z,20.11
2023-02-05T16:25:35.453Z,20.19
2023-02-05T16:28:08.071Z,20.21
2023-02-05T16:30:44.391Z,20.16
2023-02-05T16:33:27.045Z,20.21
2023-02-05T16:35:56.999Z,20.14
2023-02-05T16:38:24.882Z,20.14
2023-02-05T16:40:55.772Z,20.26
2023-02-05T16:43:29.353Z,20.25
2023-02-05T16:46:09.445Z,20.26
2023-02-05T16:48:50.461Z,20.18
2023-02-05T16:51:33.410Z,20.19
2023-02-05T16:54:21.258Z,19.60
2023-02-05T16:57:04.666Z,20.15
2023-02-05T16:59:38.603Z,20.12
2023-02-05T17:02:37.694Z,20.11
2023-02-05T17:05:28.330Z,19.90
2023-02-05T17:08:08.581Z,19.88
2023-02-05T17:10:52.205Z,20.08
2023-02-05T17:13:37.297Z,20.07
2023-02-05T17:16:32.110Z,19.88
2023-02-05T17:19:02.467Z,20.05
2023-02-05T17:21:37.362Z,19.99
2023-02-05T17:24:09.300Z,20.03
2023-02-05T17:26:41.001Z,19.91
2023-02-05T17:29:15.605Z,19.65
2023-02-05T17:31:44.757Z,19.68
2023-02-05T17:34:12.479Z,19.67
2023-02-05T17:36:40.740Z,19.70
2023-02-05T17:39:08.404Z,19.69
2023-02-05T17:41:56.364Z,19.71
2023-02-05T17:44:24.101Z,19.54
2023-02-05T17:46:54.348Z,19.26
2023-02-05T17:49:22.057Z,19.89
2023-02-05T17:51:49.947Z,19.67
2023-02-05T17:54:23.296Z,19.87
2023-02-05T17:56:53.804Z,19.84
2023-02-05T17:59:24.419Z,19.82
2023-02-05T18:01:53.268Z,19.81
2023-02-05T18:04:21.293Z,19.68
2023-02-05T18:06:49.936Z,19.66
2023-02-05T18:09:19.895Z,19.66
2023-02-05T18:11:47.818Z,19.05
2023-02-05T18:14:16.055Z,19.18
2023-02-05T18:16:44.149Z,19.51
2023-02-05T18:19:13.944Z,19.61
2023-02-05T18:21:41.800Z,19.58
2023-02-05T18:24:09.619Z,19.62
2023-02-05T18:26:38.501Z,19.61
2023-02-05T18:29:06.719Z,19.26
2023-02-05T18:31:35.480Z,19.04
2023-02-05T18:34:03.515Z,19.63
2023-02-05T18:36:31.718Z,19.50
2023-02-05T18:38:59.560Z,19.74
2023-02-05T18:41:28.773Z,19.77
2023-02-05T18:43:56.601Z,19.77
2023-02-05T18:46:25.668Z,19.44
2023-02-05T18:48:56.454Z,19.54
2023-02-05T18:51:24.380Z,19.21
2023-02-05T18:53:52.403Z,19.31
2023-02-05T18:56:23.635Z,19.50
2023-02-05T18:58:59.569Z,19.66
2023-02-05T19:01:29.999Z,19.66
2023-02-05T19:04:05.387Z,19.55
2023-02-05T19:06:34.177Z,18.90
2023-02-05T19:09:03.379Z,19.55
2023-02-05T19:11:31.969Z,19.63
2023-02-05T19:14:04.954Z,19.65
2023-02-05T19:16:35.442Z,19.48
2023-02-05T19:19:05.289Z,19.63
2023-02-05T19:21:33.193Z,19.54
2023-02-05T19:24:05.671Z,19.54
2023-02-05T19:26:36.263Z,19.48
2023-02-05T19:29:12.292Z,19.58
2023-02-05T19:31:43.066Z,19.39
2023-02-05T19:34:12.163Z,19.50
2023-02-05T19:36:40.485Z,19.33
2023-02-05T19:39:12.637Z,19.52
2023-02-05T19:41:42.176Z,19.52
2023-02-05T19:44:10.188Z,19.42
2023-02-05T19:46:48.879Z,19.20
2023-02-05T19:49:19.328Z,19.42
2023-02-05T19:51:49.207Z,19.63
2023-02-05T19:54:21.146Z,19.59
2023-02-05T19:56:49.470Z,19.70
2023-02-05T19:59:17.720Z,19.72
2023-02-05T20:01:46.086Z,19.35
2023-02-05T20:04:18.035Z,19.37
2023-02-05T20:06:47.499Z,19.72
2023-02-05T20:09:17.279Z,19.33
2023-02-05T20:11:48.250Z,19.67
2023-02-05T20:14:17.090Z,19.65
2023-02-05T20:16:46.128Z,19.43
2023-02-05T20:19:17.182Z,18.83
2023-02-05T20:21:46.719Z,19.40
2023-02-05T20:24:16.526Z,19.14
2023-02-05T20:26:48.650Z,19.59
2023-02-05T20:29:35.783Z,19.17
2023-02-05T20:32:04.753Z,19.58
2023-02-05T20:34:35.903Z,19.13
2023-02-05T20:37:07.898Z,19.54
2023-02-05T20:39:39.862Z,19.53
2023-02-05T20:42:10.793Z,19.49
2023-02-05T20:44:38.769Z,19.38
2023-02-05T20:47:09.187Z,19.37
2023-02-05T20:49:38.683Z,19.41
2023-02-05T20:52:07.933Z,19.46
2023-02-05T20:54:35.992Z,19.35
2023-02-05T20:57:04.403Z,19.34
2023-02-05T20:59:33.261Z,19.42
2023-02-05T21:02:01.229Z,19.41
2023-02-05T21:04:29.659Z,19.25
2023-02-05T21:06:58.578Z,19.43
2023-02-05T21:09:26.323Z,19.15
2023-02-05T21:11:57.329Z,19.41
2023-02-05T21:14:29.750Z,19.41
2023-02-05T21:16:58.032Z,19.35
2023-02-05T21:19:25.858Z,19.36
2023-02-05T21:21:54.468Z,18.58
2023-02-05T21:24:22.248Z,19.36
2023-02-05T21:26:50.360Z,19.38
2023-02-05T21:29:20.749Z,19.13
2023-02-05T21:31:53.189Z,19.39
2023-02-05T21:34:26.788Z,19.17
2023-02-05T21:36:58.027Z,18.79
2023-02-05T21:39:26.217Z,19.20
2023-02-05T21:41:54.904Z,19.31
2023-02-05T21:44:23.588Z,19.21
2023-02-05T21:46:53.835Z,19.24
2023-02-05T21:49:21.729Z,18.96
2023-02-05T21:51:50.490Z,19.12
2023-02-05T21:54:25.423Z,19.20
2023-02-05T21:56:57.997Z,18.59
2023-02-05T21:59:33.300Z,18.91
2023-02-05T22:02:02.425Z,18.67
2023-02-05T22:04:30.206Z,19.00
2023-02-05T22:06:58.024Z,19.00
2023-02-05T22:09:29.947Z,19.02
2023-02-05T22:12:04.075Z,18.53
2023-02-05T22:14:36.574Z,18.99
2023-02-05T22:17:04.890Z,19.11
2023-02-05T22:19:34.890Z,19.07
2023-02-05T22:22:06.115Z,18.71
2023-02-05T22:24:33.970Z,18.79
2023-02-05T22:27:03.581Z,18.77
2023-02-05T22:29:31.809Z,18.92
2023-02-05T22:31:59.492Z,18.54
2023-02-05T22:34:27.811Z,18.92
2023-02-05T22:36:55.527Z,18.89
2023-02-05T22:39:24.074Z,18.46
2023-02-05T22:41:51.863Z,18.78
2023-02-05T22:44:19.919Z,18.83
2023-02-05T22:46:47.578Z,18.41
2023-02-05T22:49:15.607Z,18.77
2023-02-05T22:51:44.996Z,18.71
2023-02-05T22:54:14.750Z,18.50
2023-02-05T22:56:42.826Z,18.64
2023-02-05T22:59:12.075Z,18.34
2023-02-05T23:01:39.815Z,18.65
2023-02-05T23:04:11.763Z,18.70
2023-02-05T23:06:42.232Z,18.73
2023-02-05T23:09:16.880Z,18.63
2023-02-05T23:11:45.533Z,17.99
2023-02-05T23:14:17.302Z,18.69
2023-02-05T23:16:46.718Z,18.67
2023-02-05T23:19:18.897Z,18.64
2023-02-05T23:21:47.271Z,18.66
2023-02-05T23:24:17.514Z,18.67
2023-02-05T23:26:48.241Z,18.66
2023-02-05T23:29:17.241Z,18.69
2023-02-05T23:31:45.984Z,18.76
2023-02-05T23:34:14.345Z,18.49
2023-02-05T23:36:42.070Z,18.77
2023-02-05T23:39:10.063Z,18.36
2023-02-05T23:41:38.859Z,18.75
2023-02-05T23:44:08.806Z,18.54
2023-02-05T23:46:37.285Z,17.94
2023-02-05T23:49:06.009Z,18.70
2023-02-05T23:51:34.800Z,18.62
2023-02-05T23:54:03.790Z,18.32
2023-02-05T23:56:33.520Z,18.50
2023-02-05T23:59:01.373Z,18.39
